createdAt,value
2023-10-29T00:01:31.960Z,18.36
2023-10-29T00:03:59.015Z,18.14
2023-10-29T00:06:26.162Z,18.11
2023-10-29T00:08:53.125Z,18.13
2023-10-29T00:11:20.070Z,18.36
2023-10-29T00:13:47.071Z,18.71
2023-10-29T00:16:14.410Z,19.03
2023-10-29T00:18:41.693Z,18.33
2023-10-29T00:21:08.588Z,18.30
2023-10-29T00:23:35.596Z,17.87
2023-10-29T00:26:02.646Z,17.97
2023-10-29T00:28:29.577Z,18.13
2023-10-29T00:30:56.837Z,18.23
2023-10-29T00:33:24.498Z,18.05
2023-10-29T00:35:52.167Z,18.12
2023-10-29T00:38:19.065Z,18.30
2023-10-29T00:40:46.486Z,18.51
2023-10-29T00:43:15.445Z,18.50
2023-10-29T00:45:44.426Z,18.48
2023-10-29T00:48:13.081Z,18.16
2023-10-29T00:50:41.102Z,17.97
2023-10-29T00:53:08.408Z,17.89
2023-10-29T00:55:36.978Z,17.75
2023-10-29T00:58:05.297Z,18.00
2023-10-29T01:00:32.331Z,17.93
2023-10-29T01:02:59.457Z,17.79
2023-10-29T01:05:26.451Z,17.64
2023-10-29T01:07:53.594Z,17.15
2023-10-29T01:10:20.472Z,17.17
2023-10-29T01:12:47.556Z,17.25
2023-10-29T01:15:14.621Z,17.20
2023-10-29T01:17:43.399Z,16.84
2023-10-29T01:20:12.861Z,16.72
2023-10-29T01:22:39.800Z,16.46
2023-10-29T01:25:10.844Z,16.51
2023-10-29T01:27:38.998Z,16.34
2023-10-29T01:30:06.821Z,16.48
2023-10-29T01:32:34.139Z,16.49
2023-10-29T01:35:01.097Z,16.42
2023-10-29T01:37:27.993Z,16.43
2023-10-29T01:39:55.086Z,16.57
2023-10-29T01:42:22.436Z,16.77
2023-10-29T01:44:49.494Z,16.89
2023-10-29T01:47:16.589Z,16.81
2023-10-29T01:49:43.915Z,16.92
2023-10-29T01:52:10.814Z,16.80
2023-10-29T01:54:37.795Z,16.55
2023-10-29T01:57:06.013Z,16.84
2023-10-29T01:59:33.607Z,16.72
2023-10-29T02:02:00.576Z,16.88
2023-10-29T02:04:28.342Z,17.02
2023-10-29T02:06:55.863Z,17.08
2023-10-29T02:09:23.667Z,17.27
2023-10-29T02:11:50.595Z,17.23
2023-10-29T02:14:17.700Z,17.18
2023-10-29T02:16:44.581Z,17.15
2023-10-29T02:19:11.554Z,17.17
2023-10-29T02:21:38.547Z,17.15
2023-10-29T02:24:05.774Z,17.03
2023-10-29T02:26:32.727Z,16.86
2023-10-29T02:29:00.394Z,16.95
2023-10-29T02:31:27.505Z,17.14
2023-10-29T02:33:54.659Z,17.10
2023-10-29T02:36:22.057Z,16.90
2023-10-29T02:38:48.968Z,16.80
2023-10-29T02:41:15.909Z,16.53
2023-10-29T02:43:42.833Z,16.65
2023-10-29T02:46:11.829Z,16.88
2023-10-29T02:48:39.179Z,16.86
2023-10-29T02:51:12.250Z,16.87
2023-10-29T02:53:40.763Z,16.72
2023-10-29T02:56:07.839Z,16.71
2023-10-29T02:58:35.358Z,16.71
2023-10-29T03:01:09.174Z,16.60
2023-10-29T03:03:38.316Z,16.46
2023-10-29T03:06:06.774Z,16.56
2023-10-29T03:08:34.929Z,16.59
2023-10-29T03:11:02.364Z,16.45
2023-10-29T03:13:29.516Z,16.50
2023-10-29T03:15:57.481Z,16.07
2023-10-29T03:18:24.709Z,16.13
2023-10-29T03:20:51.766Z,16.12
2023-10-29T03:23:18.759Z,16.28
2023-10-29T03:25:46.255Z,16.16
2023-10-29T03:28:13.712Z,16.28
2023-10-29T03:30:40.664Z,16.20
2023-10-29T03:33:07.886Z,16.21
2023-10-29T03:35:34.980Z,16.13
2023-10-29T03:38:02.042Z,16.03
2023-10-29T03:40:29.073Z,15.92
2023-10-29T03:42:55.947Z,15.84
2023-10-29T03:45:22.989Z,15.81
2023-10-29T03:47:49.930Z,15.76
2023-10-29T03:50:18.557Z,15.32
2023-10-29T03:52:45.907Z,15.43
2023-10-29T03:55:12.870Z,15.26
2023-10-29T03:57:41.107Z,15.36
2023-10-29T04:00:08.433Z,15.36
2023-10-29T04:02:41.112Z,15.35
2023-10-29T04:05:10.140Z,15.07
2023-10-29T04:07:40.393Z,14.93
2023-10-29T04:10:09.143Z,14.84
2023-10-29T04:12:36.122Z,14.79
2023-10-29T04:15:06.252Z,14.87
2023-10-29T04:17:33.761Z,15.01
2023-10-29T04:20:00.681Z,15.02
2023-10-29T04:22:27.669Z,14.81
2023-10-29T04:24:54.550Z,14.66
2023-10-29T04:27:21.417Z,14.49
2023-10-29T04:29:48.394Z,14.60
2023-10-29T04:32:15.383Z,14.71
2023-10-29T04:34:42.286Z,14.81
2023-10-29T04:37:09.250Z,14.84
2023-10-29T04:39:36.140Z,14.70
2023-10-29T04:42:03.296Z,14.66
2023-10-29T04:44:30.301Z,14.81
2023-10-29T04:46:57.246Z,14.81
2023-10-29T04:49:25.324Z,14.67
2023-10-29T04:51:53.501Z,14.76
2023-10-29T04:54:21.549Z,14.77
2023-10-29T04:56:48.474Z,14.90
2023-10-29T04:59:15.398Z,15.17
2023-10-29T05:01:42.289Z,15.57
2023-10-29T05:04:09.243Z,15.77
2023-10-29T05:06:36.183Z,15.67
2023-10-29T05:09:03.102Z,15.96
2023-10-29T05:11:32.451Z,16.00
2023-10-29T05:13:59.366Z,16.32
2023-10-29T05:16:26.361Z,16.76
2023-10-29T05:18:53.361Z,16.79
2023-10-29T05:21:21.844Z,16.69
2023-10-29T05:23:48.764Z,16.58
2023-10-29T05:26:15.711Z,16.49
2023-10-29T05:28:42.647Z,16.93
2023-10-29T05:31:09.559Z,16.98
2023-10-29T05:33:37.756Z,17.24
2023-10-29T05:36:05.607Z,17.21
2023-10-29T05:38:32.562Z,17.01
2023-10-29T05:40:59.508Z,17.16
2023-10-29T05:43:26.893Z,17.26
2023-10-29T05:45:53.719Z,17.38
2023-10-29T05:48:20.685Z,16.98
2023-10-29T05:50:47.685Z,16.68
2023-10-29T05:53:14.751Z,16.81
2023-10-29T05:55:41.786Z,16.95
2023-10-29T05:58:08.667Z,17.33
2023-10-29T06:00:35.607Z,17.40
2023-10-29T06:03:02.585Z,18.19
2023-10-29T06:05:29.727Z,18.37
2023-10-29T06:07:57.487Z,18.04
2023-10-29T06:10:24.343Z,17.93
2023-10-29T06:12:51.218Z,17.34
2023-10-29T06:15:18.235Z,17.09
2023-10-29T06:17:46.305Z,16.96
2023-10-29T06:20:18.400Z,16.89
2023-10-29T06:22:46.122Z,16.83
2023-10-29T06:25:12.977Z,17.02
2023-10-29T06:27:39.928Z,17.36
2023-10-29T06:30:08.028Z,17.51
2023-10-29T06:32:35.195Z,18.08
2023-10-29T06:35:02.118Z,18.55
2023-10-29T06:37:29.055Z,18.69
2023-10-29T06:39:55.896Z,18.97
2023-10-29T06:42:22.766Z,19.48
2023-10-29T06:44:49.914Z,19.28
2023-10-29T06:47:17.095Z,19.66
2023-10-29T06:49:44.214Z,19.65
2023-10-29T06:52:11.355Z,19.87
2023-10-29T06:54:38.340Z,19.82
2023-10-29T06:57:08.332Z,20.49
2023-10-29T06:59:35.394Z,20.49
2023-10-29T07:02:02.391Z,20.54
2023-10-29T07:04:29.580Z,20.75
2023-10-29T07:06:56.650Z,20.74
2023-10-29T07:09:23.495Z,20.98
2023-10-29T07:11:50.971Z,21.36
2023-10-29T07:14:18.015Z,21.11
2023-10-29T07:16:45.337Z,20.92
2023-10-29T07:19:14.108Z,21.32
2023-10-29T07:21:42.122Z,21.83
2023-10-29T07:24:09.923Z,21.90
2023-10-29T07:26:37.060Z,21.91
2023-10-29T07:29:04.316Z,21.89
2023-10-29T07:31:32.225Z,21.84
2023-10-29T07:33:59.302Z,22.02
2023-10-29T07:36:26.217Z,22.43
2023-10-29T07:38:53.317Z,22.74
2023-10-29T07:41:20.895Z,23.03
2023-10-29T07:43:48.771Z,22.89
2023-10-29T07:46:16.099Z,23.11
2023-10-29T07:48:43.510Z,22.99
2023-10-29T07:51:11.702Z,22.85
2023-10-29T07:53:38.753Z,22.86
2023-10-29T07:56:13.288Z,22.46
2023-10-29T07:58:41.495Z,22.60
2023-10-29T08:01:16.618Z,22.66
2023-10-29T08:03:44.862Z,23.21
2023-10-29T08:06:12.880Z,23.33
2023-10-29T08:08:40.696Z,23.52
2023-10-29T08:11:07.852Z,23.87
2023-10-29T08:13:34.831Z,24.18
2023-10-29T08:16:03.898Z,24.28
2023-10-29T08:18:30.940Z,24.36
2023-10-29T08:20:57.909Z,24.61
2023-10-29T08:23:24.876Z,24.78
2023-10-29T08:25:51.799Z,24.82
2023-10-29T08:28:20.262Z,25.13
2023-10-29T08:30:50.097Z,25.19
2023-10-29T08:33:19.184Z,25.48
2023-10-29T08:35:46.651Z,25.25
2023-10-29T08:38:13.783Z,25.18
2023-10-29T08:40:40.723Z,25.79
2023-10-29T08:43:08.352Z,25.95
2023-10-29T08:45:42.152Z,25.89
2023-10-29T08:48:11.455Z,25.02
2023-10-29T08:50:38.846Z,24.90
2023-10-29T08:53:05.870Z,25.49
2023-10-29T08:55:35.269Z,25.01
2023-10-29T08:58:02.160Z,24.99
2023-10-29T09:00:38.432Z,25.24
2023-10-29T09:03:09.665Z,25.04
2023-10-29T09:05:37.235Z,25.42
2023-10-29T09:08:04.310Z,25.84
2023-10-29T09:10:31.285Z,26.00
2023-10-29T09:12:58.099Z,26.35
2023-10-29T09:15:24.965Z,26.38
2023-10-29T09:17:52.006Z,26.60
2023-10-29T09:20:19.063Z,26.66
2023-10-29T09:22:46.008Z,26.41
2023-10-29T09:25:12.894Z,26.45
2023-10-29T09:27:39.807Z,26.76
2023-10-29T09:30:08.074Z,26.35
2023-10-29T09:32:36.563Z,26.24
2023-10-29T09:35:05.945Z,26.56
2023-10-29T09:37:36.153Z,26.41
2023-10-29T09:40:04.219Z,26.41
2023-10-29T09:42:35.569Z,26.30
2023-10-29T09:45:04.960Z,25.46
2023-10-29T09:47:34.864Z,26.05
2023-10-29T09:50:02.539Z,24.96
2023-10-29T09:52:33.722Z,25.64
2023-10-29T09:55:02.203Z,25.95
2023-10-29T09:57:29.139Z,26.19
2023-10-29T09:59:56.204Z,26.43
2023-10-29T10:02:23.905Z,27.01
2023-10-29T10:04:52.380Z,26.54
2023-10-29T10:07:20.942Z,26.68
2023-10-29T10:09:55.299Z,27.00
2023-10-29T10:12:22.974Z,26.82
2023-10-29T10:14:50.980Z,26.92
2023-10-29T10:17:18.435Z,27.02
2023-10-29T10:19:45.372Z,27.02
2023-10-29T10:22:13.057Z,27.18
2023-10-29T10:24:47.548Z,27.29
2023-10-29T10:27:15.522Z,27.51
2023-10-29T10:29:42.591Z,27.15
2023-10-29T10:32:10.081Z,27.35
2023-10-29T10:34:40.088Z,27.31
2023-10-29T10:37:06.995Z,27.53
2023-10-29T10:39:34.337Z,28.04
2023-10-29T10:42:04.370Z,28.31
2023-10-29T10:44:32.277Z,27.33
2023-10-29T10:47:01.322Z,27.36
2023-10-29T10:49:32.392Z,27.23
2023-10-29T10:52:02.854Z,27.42
2023-10-29T10:54:31.044Z,27.94
2023-10-29T10:56:58.062Z,28.06
2023-10-29T10:59:25.108Z,28.46
2023-10-29T11:01:52.236Z,28.37
2023-10-29T11:04:20.648Z,27.60
2023-10-29T11:06:48.257Z,27.32
2023-10-29T11:09:16.353Z,27.73
2023-10-29T11:11:46.275Z,28.23
2023-10-29T11:14:18.212Z,28.54
2023-10-29T11:16:52.358Z,28.38
2023-10-29T11:19:35.814Z,28.41
2023-10-29T11:22:14.982Z,28.42
2023-10-29T11:24:42.308Z,28.56
2023-10-29T11:27:45.592Z,28.95
2023-10-29T11:30:17.698Z,28.61
2023-10-29T11:32:47.219Z,28.98
2023-10-29T11:35:18.040Z,28.95
2023-10-29T11:37:45.563Z,29.18
2023-10-29T11:40:24.436Z,29.32
2023-10-29T11:42:54.680Z,29.33
2023-10-29T11:45:30.599Z,29.19
2023-10-29T11:48:13.114Z,29.25
2023-10-29T11:50:41.425Z,29.48
2023-10-29T11:53:22.651Z,29.55
2023-10-29T11:55:52.352Z,29.21
2023-10-29T11:58:23.880Z,28.59
2023-10-29T12:00:50.632Z,28.74
2023-10-29T12:03:21.945Z,28.58
2023-10-29T12:05:52.695Z,28.77
2023-10-29T12:08:20.710Z,28.43
2023-10-29T12:10:51.348Z,28.60
2023-10-29T12:13:22.554Z,28.44
2023-10-29T12:15:57.318Z,28.63
2023-10-29T12:18:25.695Z,29.00
2023-10-29T12:21:05.403Z,29.20
2023-10-29T12:23:32.926Z,29.43
2023-10-29T12:26:08.205Z,29.49
2023-10-29T12:28:38.999Z,28.91
2023-10-29T12:31:09.463Z,28.75
2023-10-29T12:33:37.802Z,28.51
2023-10-29T12:36:06.530Z,29.06
2023-10-29T12:38:39.089Z,28.61
2023-10-29T12:41:09.807Z,28.49
2023-10-29T12:43:39.139Z,28.26
2023-10-29T12:46:11.238Z,28.64
2023-10-29T12:49:02.185Z,28.84
2023-10-29T12:51:36.116Z,29.23
2023-10-29T12:54:16.827Z,28.42
2023-10-29T12:56:57.589Z,28.59
2023-10-29T12:59:29.537Z,28.68
2023-10-29T13:02:01.098Z,28.89
2023-10-29T13:04:29.014Z,28.78
2023-10-29T13:06:57.401Z,28.55
2023-10-29T13:09:26.762Z,28.59
2023-10-29T13:11:54.233Z,28.83
2023-10-29T13:14:23.553Z,28.48
2023-10-29T13:16:54.366Z,28.65
2023-10-29T13:19:22.465Z,28.45
2023-10-29T13:21:53.705Z,28.33
2023-10-29T13:24:21.204Z,28.75
2023-10-29T13:26:48.744Z,28.32
2023-10-29T13:29:15.853Z,27.89
2023-10-29T13:31:44.437Z,27.94
2023-10-29T13:34:11.620Z,27.88
2023-10-29T13:36:39.177Z,27.59
2023-10-29T13:39:07.233Z,27.67
2023-10-29T13:41:35.252Z,27.91
2023-10-29T13:44:02.524Z,27.86
2023-10-29T13:46:29.928Z,27.92
2023-10-29T13:48:57.207Z,27.99
2023-10-29T13:51:24.361Z,27.67
2023-10-29T13:53:51.742Z,27.50
2023-10-29T13:56:18.729Z,27.39
2023-10-29T13:58:45.615Z,27.43
2023-10-29T14:01:20.281Z,27.39
2023-10-29T14:03:48.505Z,27.40
2023-10-29T14:06:16.622Z,27.08
2023-10-29T14:08:43.822Z,27.08
2023-10-29T14:11:11.060Z,27.09
2023-10-29T14:13:37.944Z,27.13
2023-10-29T14:16:05.030Z,27.05
2023-10-29T14:18:31.994Z,26.88
2023-10-29T14:20:59.132Z,26.67
2023-10-29T14:23:26.191Z,26.57
2023-10-29T14:25:53.060Z,26.47
2023-10-29T14:28:20.162Z,26.35
2023-10-29T14:30:47.296Z,26.29
2023-10-29T14:33:14.275Z,26.24
2023-10-29T14:35:41.327Z,26.29
2023-10-29T14:38:09.455Z,26.36
2023-10-29T14:40:36.594Z,26.42
2023-10-29T14:43:20.588Z,26.19
2023-10-29T14:45:52.888Z,26.25
2023-10-29T14:48:21.043Z,26.09
2023-10-29T14:50:49.129Z,25.81
2023-10-29T14:53:16.379Z,25.67
2023-10-29T14:55:50.198Z,25.66
2023-10-29T14:58:17.636Z,25.62
2023-10-29T15:00:45.829Z,25.39
2023-10-29T15:03:13.739Z,25.17
2023-10-29T15:05:41.039Z,25.16
2023-10-29T15:08:08.815Z,25.10
2023-10-29T15:10:35.968Z,25.05
2023-10-29T15:13:03.002Z,24.78
2023-10-29T15:15:31.930Z,24.65
2023-10-29T15:17:59.032Z,24.46
2023-10-29T15:20:28.279Z,24.30
2023-10-29T15:22:55.621Z,24.26
2023-10-29T15:25:22.714Z,24.19
2023-10-29T15:27:49.642Z,24.17
2023-10-29T15:30:16.605Z,24.01
2023-10-29T15:32:43.622Z,24.00
2023-10-29T15:35:10.814Z,24.01
2023-10-29T15:37:39.679Z,23.96
2023-10-29T15:40:07.967Z,23.91
2023-10-29T15:42:34.909Z,23.77
2023-10-29T15:45:02.038Z,23.77
2023-10-29T15:47:29.637Z,23.76
2023-10-29T15:49:56.585Z,23.77
2023-10-29T15:52:23.839Z,23.51
2023-10-29T15:54:51.159Z,23.42
2023-10-29T15:57:19.349Z,23.37
2023-10-29T15:59:46.531Z,23.27
2023-10-29T16:02:13.538Z,23.32
2023-10-29T16:04:40.622Z,23.30
2023-10-29T16:07:09.450Z,23.04
2023-10-29T16:09:36.874Z,23.28
2023-10-29T16:12:08.832Z,23.12
2023-10-29T16:14:36.584Z,23.07
2023-10-29T16:17:04.504Z,23.15
2023-10-29T16:19:31.942Z,23.22
2023-10-29T16:21:59.023Z,23.07
2023-10-29T16:24:28.182Z,22.90
2023-10-29T16:26:55.303Z,22.73
2023-10-29T16:29:22.944Z,22.80
2023-10-29T16:31:49.815Z,22.59
2023-10-29T16:34:16.742Z,22.73
2023-10-29T16:36:43.715Z,22.75
2023-10-29T16:39:11.282Z,22.81
2023-10-29T16:41:38.299Z,22.75
2023-10-29T16:44:05.242Z,22.75
2023-10-29T16:46:33.143Z,22.84
2023-10-29T16:49:02.468Z,22.78
2023-10-29T16:51:30.273Z,22.72
2023-10-29T16:53:57.460Z,22.70
2023-10-29T16:56:24.361Z,22.66
2023-10-29T16:58:51.307Z,22.60
2023-10-29T17:01:19.159Z,22.41
2023-10-29T17:03:47.162Z,22.59
2023-10-29T17:06:15.858Z,22.48
2023-10-29T17:08:43.015Z,22.33
2023-10-29T17:11:09.981Z,22.37
2023-10-29T17:13:37.116Z,22.42
2023-10-29T17:16:05.318Z,22.32
2023-10-29T17:18:32.546Z,22.11
2023-10-29T17:21:00.962Z,22.10
2023-10-29T17:23:28.510Z,22.13
2023-10-29T17:25:56.511Z,22.08
2023-10-29T17:28:23.583Z,22.04
2023-10-29T17:30:50.490Z,21.83
2023-10-29T17:33:17.531Z,21.69
2023-10-29T17:35:44.584Z,21.66
2023-10-29T17:38:11.536Z,21.79
2023-10-29T17:40:38.445Z,21.78
2023-10-29T17:43:05.478Z,21.66
2023-10-29T17:45:44.153Z,21.63
2023-10-29T17:48:11.525Z,21.72
2023-10-29T17:50:38.520Z,21.76
2023-10-29T17:53:05.540Z,21.74
2023-10-29T17:55:32.478Z,21.82
2023-10-29T17:58:01.035Z,21.78
2023-10-29T18:00:28.284Z,21.86
2023-10-29T18:02:55.517Z,21.77
2023-10-29T18:05:24.292Z,21.75
2023-10-29T18:07:51.260Z,21.48
2023-10-29T18:10:18.668Z,21.68
2023-10-29T18:12:46.089Z,21.60
2023-10-29T18:15:13.202Z,21.63
2023-10-29T18:17:40.200Z,21.51
2023-10-29T18:20:08.054Z,21.39
2023-10-29T18:22:34.965Z,21.32
2023-10-29T18:25:01.945Z,21.30
2023-10-29T18:27:28.892Z,21.20
2023-10-29T18:29:55.973Z,21.08
2023-10-29T18:32:22.907Z,20.97
2023-10-29T18:34:50.045Z,21.05
2023-10-29T18:37:17.165Z,20.89
2023-10-29T18:39:44.039Z,20.78
2023-10-29T18:42:11.046Z,20.79
2023-10-29T18:44:37.938Z,20.74
2023-10-29T18:47:05.547Z,20.73
2023-10-29T18:49:32.576Z,20.57
2023-10-29T18:51:59.450Z,20.61
2023-10-29T18:54:26.870Z,20.43
2023-10-29T18:56:54.112Z,20.40
2023-10-29T18:59:22.803Z,20.35
2023-10-29T19:01:49.937Z,20.16
2023-10-29T19:04:17.171Z,20.11
2023-10-29T19:06:44.404Z,20.14
2023-10-29T19:09:11.828Z,20.07
2023-10-29T19:11:39.458Z,19.93
2023-10-29T19:14:06.603Z,19.85
2023-10-29T19:16:33.648Z,19.88
2023-10-29T19:19:02.504Z,19.63
2023-10-29T19:21:29.817Z,19.42
2023-10-29T19:23:57.238Z,19.12
2023-10-29T19:26:24.288Z,19.39
2023-10-29T19:28:51.541Z,19.43
2023-10-29T19:31:24.018Z,19.37
2023-10-29T19:33:55.449Z,19.23
2023-10-29T19:36:22.721Z,18.78
2023-10-29T19:38:49.772Z,19.08
2023-10-29T19:41:16.648Z,19.15
2023-10-29T19:43:43.589Z,19.05
2023-10-29T19:46:11.228Z,19.01
2023-10-29T19:48:38.701Z,18.94
2023-10-29T19:51:09.275Z,18.82
2023-10-29T19:53:37.017Z,18.81
2023-10-29T19:56:07.915Z,18.94
2023-10-29T19:58:34.847Z,18.72
2023-10-29T20:01:09.467Z,18.61
2023-10-29T20:03:37.844Z,18.71
2023-10-29T20:06:08.676Z,18.44
2023-10-29T20:08:36.929Z,18.42
2023-10-29T20:11:21.792Z,18.33
2023-10-29T20:13:49.993Z,18.40
2023-10-29T20:16:16.977Z,18.33
2023-10-29T20:18:44.267Z,18.42
2023-10-29T20:21:19.201Z,18.32
2023-10-29T20:23:47.684Z,18.44
2023-10-29T20:26:16.241Z,18.26
2023-10-29T20:28:43.471Z,18.18
2023-10-29T20:31:10.596Z,18.20
2023-10-29T20:33:37.583Z,18.23
2023-10-29T20:36:05.463Z,17.99
2023-10-29T20:38:32.592Z,18.03
2023-10-29T20:40:59.584Z,18.06
2023-10-29T20:43:26.429Z,17.93
2023-10-29T20:45:54.301Z,17.84
2023-10-29T20:48:23.140Z,17.92
2023-10-29T20:50:54.822Z,17.97
2023-10-29T20:53:22.024Z,17.78
2023-10-29T20:55:48.888Z,17.77
2023-10-29T20:58:15.774Z,17.91
2023-10-29T21:00:47.560Z,17.72
2023-10-29T21:03:14.483Z,17.55
2023-10-29T21:05:41.865Z,17.70
2023-10-29T21:08:08.914Z,17.64
2023-10-29T21:10:35.823Z,17.67
2023-10-29T21:13:02.711Z,17.68
2023-10-29T21:15:29.629Z,17.65
2023-10-29T21:17:56.553Z,17.71
2023-10-29T21:20:27.594Z,17.74
2023-10-29T21:22:54.825Z,17.67
2023-10-29T21:25:21.759Z,17.75
2023-10-29T21:27:48.759Z,17.72
2023-10-29T21:30:15.778Z,17.73
2023-10-29T21:32:45.669Z,17.62
2023-10-29T21:35:12.574Z,17.51
2023-10-29T21:37:39.550Z,17.84
2023-10-29T21:40:07.352Z,17.64
2023-10-29T21:42:34.367Z,17.42
2023-10-29T21:45:01.470Z,17.48
2023-10-29T21:47:28.460Z,17.49
2023-10-29T21:49:55.398Z,17.52
2023-10-29T21:52:22.323Z,17.65
2023-10-29T21:54:51.751Z,17.74
2023-10-29T21:57:19.461Z,17.72
2023-10-29T21:59:49.215Z,17.60
2023-10-29T22:02:16.401Z,17.71
2023-10-29T22:04:43.520Z,17.68
2023-10-29T22:07:10.380Z,17.53
2023-10-29T22:09:37.572Z,17.59
2023-10-29T22:12:04.990Z,17.61
2023-10-29T22:14:32.109Z,17.65
2023-10-29T22:16:59.114Z,17.56
2023-10-29T22:19:26.143Z,17.48
2023-10-29T22:21:53.158Z,17.42
2023-10-29T22:24:20.177Z,17.69
2023-10-29T22:26:47.157Z,17.63
2023-10-29T22:29:14.031Z,17.68
2023-10-29T22:31:40.901Z,17.51
2023-10-29T22:34:07.712Z,17.62
2023-10-29T22:36:34.714Z,17.60
2023-10-29T22:39:01.660Z,17.71
2023-10-29T22:41:28.604Z,17.69
2023-10-29T22:43:55.567Z,17.61
2023-10-29T22:46:23.929Z,17.52
2023-10-29T22:48:52.317Z,17.40
2023-10-29T22:51:19.939Z,17.22
2023-10-29T22:53:47.064Z,17.22
2023-10-29T22:56:14.417Z,17.34
2023-10-29T22:58:41.406Z,17.26
2023-10-29T23:01:10.993Z,17.22
2023-10-29T23:03:38.114Z,16.93
2023-10-29T23:06:06.141Z,17.04
2023-10-29T23:08:33.496Z,16.84
2023-10-29T23:11:00.777Z,16.92
2023-10-29T23:13:27.653Z,17.13
2023-10-29T23:15:56.753Z,17.10
2023-10-29T23:18:25.686Z,16.97
2023-10-29T23:20:53.734Z,17.04
2023-10-29T23:23:20.772Z,17.11
2023-10-29T23:25:47.706Z,17.03
2023-10-29T23:28:30.223Z,16.85
2023-10-29T23:31:01.694Z,17.01
2023-10-29T23:33:28.894Z,16.93
2023-10-29T23:35:56.019Z,16.70
2023-10-29T23:38:22.940Z,16.79
2023-10-29T23:40:49.889Z,16.86
2023-10-29T23:43:16.859Z,16.65
2023-10-29T23:45:43.802Z,16.79
2023-10-29T23:48:12.415Z,16.83
2023-10-29T23:50:39.476Z,16.79
2023-10-29T23:53:07.470Z,16.63
2023-10-29T23:55:34.445Z,16.84
2023-10-29T23:58:01.692Z,16.90
